Time;durP1;ratioP1;P1;durP2;ratioP2;P2;SDS_P1;SDS_P2;PMS_P1;PMS_P2;Temp;Humidity;BMP_temperature;BMP_pressure;BME280_temperature;BME280_humidity;BME280_pressure;Samples;Min_cycle;Max_cycle;Signal;HPM_P1;HPM_P2
2021/07/14 00:01:17;;;;;;;;;15.00;15.00;;;;;23.36;55.60;100890.94;5079368;27;45520;-51
2021/07/14 00:03:43;;;;;;;;;17.25;15.75;;;;;23.35;55.14;100892.72;5079376;27;45440;-50
2021/07/14 00:06:08;;;;;;;;;15.00;15.00;;;;;23.30;55.26;100885.09;5079305;27;45253;-58
2021/07/14 00:08:34;;;;;;;;;20.00;18.25;;;;;23.35;55.10;100889.22;5079168;27;45460;-50
2021/07/14 00:10:59;;;;;;;;;16.50;16.50;;;;;23.33;55.10;100893.75;5079165;28;45509;-56
2021/07/14 00:23:52;;;;;;;;;14.50;13.25;;;;;23.33;54.95;100889.31;5078674;28;45693;-53
2021/07/14 00:26:17;;;;;;;;;13.50;13.50;;;;;23.33;55.00;100889.31;5078611;27;45477;-56
2021/07/14 00:28:48;;;;;;;;;12.75;12.00;;;;;23.32;55.10;100882.31;5079243;28;45464;-52
2021/07/14 00:31:15;;;;;;;;;14.25;13.25;;;;;23.33;54.95;100888.47;5079187;27;45371;-54
2021/07/14 00:33:41;;;;;;;;;10.50;10.50;;;;;23.32;55.02;100887.63;5078118;27;47298;-58
2021/07/14 00:36:07;;;;;;;;;12.50;11.75;;;;;23.31;55.02;100891.22;5078661;27;45745;-56
2021/07/14 00:38:32;;;;;;;;;16.75;14.50;;;;;23.33;54.64;100884.03;5078523;27;45351;-54
2021/07/14 00:40:57;;;;;;;;;12.25;12.25;;;;;23.32;54.65;100892.91;5078827;27;45267;-58
2021/07/14 00:43:23;;;;;;;;;12.50;11.00;;;;;23.25;54.70;100881.03;5078429;27;46267;-57
2021/07/14 00:45:48;;;;;;;;;14.00;14.00;;;;;23.31;54.88;100885.94;5078380;27;45284;-56
2021/07/14 00:48:15;;;;;;;;;11.50;11.50;;;;;23.30;54.47;100885.09;5078768;28;45220;-58
2021/07/14 00:50:41;;;;;;;;;16.50;15.00;;;;;23.30;54.73;100890.38;5079029;27;45415;-59
2021/07/14 00:53:06;;;;;;;;;12.75;12.50;;;;;23.30;54.31;100889.53;5078205;28;45869;-58
2021/07/14 00:55:32;;;;;;;;;14.25;12.00;;;;;23.29;54.70;100888.66;5078180;27;45227;-58
2021/07/14 00:57:58;;;;;;;;;16.75;14.25;;;;;23.30;54.85;100894.81;5078389;28;45281;-58
2021/07/14 01:00:23;;;;;;;;;13.00;13.00;;;;;23.26;54.80;100893.31;5078482;27;45256;-56
2021/07/14 01:02:48;;;;;;;;;16.25;15.00;;;;;23.30;54.53;100894.81;5076701;27;47858;-58
2021/07/14 01:05:24;;;;;;;;;13.75;13.00;;;;;23.30;54.56;100902.75;5078476;27;45325;-58
2021/07/14 01:08:15;;;;;;;;;15.00;12.00;;;;;23.30;54.74;100900.13;5078269;27;45374;-55
2021/07/14 01:10:47;;;;;;;;;17.00;13.75;;;;;23.30;54.54;100902.75;5078402;27;45370;-58
2021/07/14 01:13:21;;;;;;;;;17.00;14.50;;;;;23.29;54.66;100901.91;5078151;27;46261;-58
2021/07/14 01:15:53;;;;;;;;;12.50;12.50;;;;;23.29;54.52;100911.63;5078038;27;45800;-49
2021/07/14 01:18:56;;;;;;;;;14.25;13.75;;;;;23.29;54.61;100903.72;5078157;27;45393;-57
2021/07/14 01:21:32;;;;;;;;;15.25;13.00;;;;;23.29;54.44;100903.72;5078263;28;45420;-58
2021/07/14 01:24:16;;;;;;;;;12.50;12.50;;;;;23.29;54.86;100903.72;5077856;27;45370;-58
2021/07/14 01:27:18;;;;;;;;;13.25;11.00;;;;;23.28;54.75;100902.00;5077837;27;45353;-58
2021/07/14 01:29:49;;;;;;;;;15.00;12.00;;;;;23.28;54.38;100896.72;5078156;27;45291;-58
2021/07/14 01:32:17;;;;;;;;;12.00;10.25;;;;;23.27;54.28;100901.16;5078261;27;45581;-57
2021/07/14 01:34:46;;;;;;;;;14.25;11.50;;;;;23.28;54.49;100904.66;5077852;27;46150;-59
2021/07/14 01:37:19;;;;;;;;;11.00;11.00;;;;;23.25;54.44;100896.91;5077556;27;45894;-57
2021/07/14 01:39:46;;;;;;;;;13.00;13.00;;;;;23.26;54.26;100904.72;5078040;28;45351;-56
2021/07/14 01:42:14;;;;;;;;;12.75;12.00;;;;;23.26;54.48;100903.91;5077910;27;45611;-58
2021/07/14 01:44:40;;;;;;;;;13.25;12.25;;;;;23.27;54.29;100908.25;5077473;27;46352;-57
2021/07/14 01:47:05;;;;;;;;;10.00;10.00;;;;;23.24;54.50;100901.38;5076198;27;45536;-58
2021/07/14 01:49:34;;;;;;;;;10.75;9.00;;;;;23.26;54.16;100894.16;5077792;27;45264;-58
2021/07/14 01:52:02;;;;;;;;;13.50;12.00;;;;;23.25;54.08;100891.63;5077672;27;45476;-58
2021/07/14 01:54:30;;;;;;;;;11.50;11.50;;;;;23.26;54.15;100899.44;5077322;27;46969;-57
2021/07/14 01:56:58;;;;;;;;;11.00;10.00;;;;;23.25;54.49;100892.50;5077334;27;45374;-59
2021/07/14 01:59:25;;;;;;;;;13.00;11.50;;;;;23.25;54.44;100895.13;5076821;27;45411;-58
2021/07/14 02:01:52;;;;;;;;;14.25;11.75;;;;;23.25;54.31;100883.69;5077614;27;45424;-51
2021/07/14 02:04:30;;;;;;;;;13.00;11.25;;;;;23.25;54.33;100883.69;5077425;27;46156;-48
2021/07/14 02:06:57;;;;;;;;;12.00;12.00;;;;;23.23;53.90;100883.81;5075309;28;45886;-55
2021/07/14 02:09:23;;;;;;;;;12.25;12.25;;;;;23.24;54.42;100884.63;5077308;27;45392;-49
2021/07/14 02:11:53;;;;;;;;;9.75;9.75;;;;;23.25;54.09;100883.69;5077663;27;45478;-49
2021/07/14 02:14:32;;;;;;;;;11.25;10.00;;;;;23.25;54.11;100878.41;5077297;27;46055;-51
2021/07/14 02:17:01;;;;;;;;;8.00;8.00;;;;;23.24;54.28;100880.22;5077064;27;45329;-49
2021/07/14 02:19:31;;;;;;;;;11.25;11.25;;;;;23.24;54.02;100874.06;5077121;27;45335;-49
2021/07/14 02:21:56;;;;;;;;;9.00;9.00;;;;;23.24;54.16;100879.34;5077159;27;45653;-49
2021/07/14 02:24:22;;;;;;;;;9.25;9.25;;;;;23.23;53.92;100881.16;5076716;28;46045;-54
2021/07/14 02:26:48;;;;;;;;;11.00;9.50;;;;;23.22;54.03;100873.31;5077237;27;45315;-59
2021/07/14 02:29:13;;;;;;;;;10.00;8.25;;;;;23.23;53.98;100880.28;5076760;28;45347;-57
2021/07/14 02:31:38;;;;;;;;;9.50;9.50;;;;;23.23;54.09;100883.81;5077019;28;45286;-58
2021/07/14 02:34:07;;;;;;;;;9.75;9.00;;;;;23.20;53.92;100880.53;5076560;28;46077;-58
2021/07/14 02:36:34;;;;;;;;;9.75;8.00;;;;;23.17;53.74;100874.44;5076749;27;45890;-56
2021/07/14 02:39:04;;;;;;;;;13.00;9.25;;;;;23.22;54.02;100875.97;5076712;27;45363;-51
2021/07/14 02:41:47;;;;;;;;;12.25;9.00;;;;;23.21;53.71;100874.25;5076984;27;45413;-50
2021/07/14 02:44:15;;;;;;;;;9.00;9.00;;;;;23.22;53.84;100878.59;5076472;27;46574;-48
2021/07/14 02:46:45;;;;;;;;;8.25;7.75;;;;;23.21;53.60;100884.84;5076675;27;45788;-49
2021/07/14 02:49:13;;;;;;;;;9.00;8.50;;;;;23.21;53.63;100890.13;5076693;27;45414;-56
2021/07/14 02:51:39;;;;;;;;;10.00;7.50;;;;;23.21;53.86;100892.75;5076893;27;45385;-57
2021/07/14 02:54:15;;;;;;;;;7.25;7.25;;;;;23.19;53.45;100887.59;5076385;27;46313;-58
2021/07/14 02:56:42;;;;;;;;;8.50;8.50;;;;;23.20;53.42;100899.03;5076632;27;45246;-58
2021/07/14 02:59:09;;;;;;;;;4.25;4.25;;;;;23.19;53.67;100892.00;5080367;27;45409;-54
2021/07/14 03:01:41;;;;;;;;;9.50;9.00;;;;;23.17;53.81;100887.66;5080400;27;45371;-55
2021/07/14 03:04:08;;;;;;;;;8.75;8.00;;;;;23.19;53.86;100894.66;5080130;28;46232;-59
2021/07/14 03:06:35;;;;;;;;;7.75;7.00;;;;;23.16;53.48;100893.91;5079819;27;45394;-51
2021/07/14 03:09:04;;;;;;;;;9.50;9.50;;;;;23.19;53.73;100892.00;5078745;27;45394;-56
2021/07/14 03:11:35;;;;;;;;;8.25;7.00;;;;;23.17;53.59;100884.16;5080258;27;45181;-59
2021/07/14 03:14:03;;;;;;;;;9.00;6.25;;;;;23.18;53.66;100883.22;5079640;27;47085;-57
2021/07/14 03:16:29;;;;;;;;;7.00;6.00;;;;;23.18;53.72;100901.72;5079991;28;45321;-59
2021/07/14 03:18:56;;;;;;;;;7.50;7.50;;;;;23.17;53.82;100890.31;5080082;27;45248;-49
2021/07/14 03:21:22;;;;;;;;;7.00;6.50;;;;;23.17;53.69;100895.59;5080329;27;45212;-49
2021/07/14 03:23:48;;;;;;;;;8.25;8.25;;;;;23.15;53.49;100891.38;5080129;28;46105;-49
2021/07/14 03:26:15;;;;;;;;;7.50;7.50;;;;;23.16;53.23;100893.91;5079763;27;45778;-52
2021/07/14 03:28:41;;;;;;;;;9.00;7.00;;;;;23.17;53.59;100900.88;5078632;28;45436;-48
2021/07/14 03:31:08;;;;;;;;;5.25;5.25;;;;;23.15;53.47;100900.13;5079944;27;45334;-51
2021/07/14 03:33:33;;;;;;;;;7.00;6.00;;;;;23.16;53.20;100895.69;5079718;27;46159;-51
2021/07/14 03:36:01;;;;;;;;;7.00;7.00;;;;;23.15;53.13;100905.44;5079535;27;45337;-54
2021/07/14 03:38:28;;;;;;;;;8.00;6.50;;;;;23.16;53.08;100914.19;5078255;28;45236;-51
2021/07/14 03:40:54;;;;;;;;;5.75;5.75;;;;;23.16;53.29;100909.78;5080075;27;45583;-51
2021/07/14 03:43:20;;;;;;;;;6.25;6.25;;;;;23.15;53.23;100918.66;5079741;28;45341;-48
2021/07/14 03:45:48;;;;;;;;;8.00;6.50;;;;;23.15;53.49;100917.81;5079400;27;45304;-49
2021/07/14 03:48:17;;;;;;;;;7.25;7.25;;;;;23.14;53.23;100922.22;5079543;27;45360;-53
2021/07/14 03:50:47;;;;;;;;;9.25;7.00;;;;;23.15;53.11;100923.09;5079537;27;45486;-50
2021/07/14 03:53:16;;;;;;;;;7.00;7.00;;;;;23.13;53.04;100919.69;5079244;27;47446;-51
2021/07/14 03:55:41;;;;;;;;;5.25;5.25;;;;;23.14;52.99;100922.22;5079256;27;45188;-49
2021/07/14 03:58:07;;;;;;;;;7.50;7.50;;;;;23.14;52.95;100932.81;5078028;28;45224;-56
2021/07/14 04:00:32;;;;;;;;;7.00;5.75;;;;;23.12;53.45;100928.56;5079461;28;45452;-55
2021/07/14 04:02:58;;;;;;;;;6.75;6.75;;;;;23.13;53.00;100928.47;5079040;28;46142;-49
2021/07/14 04:05:24;;;;;;;;;6.00;6.00;;;;;23.14;53.25;100938.09;5079493;27;45400;-46
2021/07/14 04:07:51;;;;;;;;;6.75;6.75;;;;;23.14;53.05;100931.97;5079336;27;45333;-49
2021/07/14 04:10:17;;;;;;;;;5.00;5.00;;;;;23.13;53.10;100933.75;5078453;27;45498;-49
2021/07/14 04:12:43;;;;;;;;;6.75;6.75;;;;;23.12;53.27;100939.97;5078985;27;45562;-49
2021/07/14 04:15:09;;;;;;;;;7.00;7.00;;;;;23.10;53.06;100933.94;5079058;27;45998;-54
2021/07/14 04:17:34;;;;;;;;;8.25;8.00;;;;;23.12;52.98;100934.69;5079061;27;45264;-49
2021/07/14 04:20:00;;;;;;;;;7.00;7.00;;;;;23.12;53.32;100934.69;5079310;27;45506;-53
2021/07/14 04:22:25;;;;;;;;;6.00;6.00;;;;;23.11;53.10;100935.66;5079106;28;45762;-50
2021/07/14 04:24:50;;;;;;;;;5.50;4.50;;;;;23.12;53.13;100937.34;5078938;27;45264;-53
2021/07/14 04:27:16;;;;;;;;;6.50;6.50;;;;;23.12;53.09;100945.28;5079213;28;45243;-51
2021/07/14 04:29:41;;;;;;;;;9.00;7.50;;;;;23.12;52.80;100942.63;5078042;28;45558;-53
2021/07/14 04:32:07;;;;;;;;;7.50;7.50;;;;;23.12;52.96;100942.63;5078550;27;45711;-58
2021/07/14 04:34:32;;;;;;;;;7.00;6.75;;;;;23.12;53.17;100933.88;5078638;27;45355;-57
2021/07/14 04:36:58;;;;;;;;;5.50;5.50;;;;;23.10;52.84;100931.31;5078819;27;45344;-58
2021/07/14 04:39:23;;;;;;;;;8.25;5.50;;;;;23.11;52.68;100930.34;5079094;27;45358;-56
2021/07/14 04:41:48;;;;;;;;;6.50;5.75;;;;;23.11;53.04;100933.00;5078498;27;45425;-57
2021/07/14 04:44:20;;;;;;;;;5.25;5.25;;;;;23.11;52.68;100932.16;5078478;27;45359;-56
2021/07/14 04:46:45;;;;;;;;;8.25;6.75;;;;;23.09;52.94;100929.63;5078665;27;45395;-53
2021/07/14 04:49:11;;;;;;;;;6.00;6.00;;;;;23.11;52.98;100940.09;5078856;27;45514;-58
2021/07/14 04:51:37;;;;;;;;;5.00;5.00;;;;;23.10;52.77;100941.88;5078372;28;46470;-58
2021/07/14 04:54:02;;;;;;;;;5.50;5.50;;;;;23.10;52.80;100933.94;5078215;28;45280;-59
2021/07/14 04:56:27;;;;;;;;;7.50;4.75;;;;;23.08;52.70;100942.94;5077340;28;45316;-51
2021/07/14 04:58:53;;;;;;;;;7.50;7.25;;;;;23.09;52.88;100945.50;5079074;27;45532;-48
2021/07/14 05:01:18;;;;;;;;;5.00;5.00;;;;;23.09;52.68;100955.19;5078162;27;46033;-51
2021/07/14 05:03:45;;;;;;;;;7.00;7.00;;;;;23.10;52.82;100957.72;5078205;27;45344;-50
2021/07/14 05:06:15;;;;;;;;;8.00;6.75;;;;;23.09;52.79;100964.00;5078330;27;45382;-58
2021/07/14 05:08:41;;;;;;;;;5.00;5.00;;;;;23.09;53.28;100966.66;5078647;28;45549;-52
2021/07/14 05:11:07;;;;;;;;;6.75;5.00;;;;;23.08;52.75;100959.66;5078173;27;45227;-57
2021/07/14 05:13:32;;;;;;;;;5.25;4.75;;;;;23.10;52.63;100962.19;5078054;28;45188;-53
2021/07/14 05:15:57;;;;;;;;;5.00;4.50;;;;;23.09;52.87;100964.00;5078430;28;45335;-55
2021/07/14 05:18:23;;;;;;;;;7.75;7.25;;;;;23.08;52.79;100961.44;5078297;27;45578;-56
2021/07/14 05:20:49;;;;;;;;;6.75;6.75;;;;;23.08;52.62;100959.66;5077747;27;46391;-56
2021/07/14 05:23:14;;;;;;;;;5.25;5.25;;;;;23.09;52.74;100963.13;5077818;27;48260;-57
2021/07/14 05:25:39;;;;;;;;;7.50;7.50;;;;;23.09;52.73;100969.28;5078035;27;45342;-55
2021/07/14 05:28:05;;;;;;;;;6.00;5.00;;;;;23.09;52.87;100971.94;5078186;27;45520;-52
2021/07/14 05:30:31;;;;;;;;;6.75;5.75;;;;;23.09;52.73;100971.06;5077492;27;46172;-56
2021/07/14 05:32:56;;;;;;;;;5.75;5.75;;;;;23.08;52.54;100974.66;5078108;27;45818;-51
2021/07/14 05:35:22;;;;;;;;;6.00;5.00;;;;;23.09;52.59;100971.06;5077918;27;45422;-58
2021/07/14 05:37:47;;;;;;;;;6.50;6.50;;;;;23.08;52.57;100972.00;5078060;28;45507;-55
2021/07/14 05:40:13;;;;;;;;;6.75;5.75;;;;;23.07;52.55;100965.88;5077333;27;45333;-57
2021/07/14 05:42:38;;;;;;;;;6.50;6.50;;;;;23.07;52.62;100968.53;5077629;27;45334;-55
2021/07/14 05:45:05;;;;;;;;;8.00;6.25;;;;;23.08;52.60;100974.66;5077622;27;45262;-52
2021/07/14 05:47:30;;;;;;;;;7.50;6.50;;;;;23.08;52.96;100980.81;5077742;27;45542;-51
2021/07/14 05:49:55;;;;;;;;;7.00;6.75;;;;;23.08;52.56;100975.53;5077755;28;46114;-57
2021/07/14 05:52:21;;;;;;;;;8.00;7.00;;;;;23.08;52.70;100975.53;5077125;27;51759;-57
2021/07/14 05:54:46;;;;;;;;;6.00;6.00;;;;;23.08;52.86;100970.22;5077504;28;45337;-57
2021/07/14 05:57:11;;;;;;;;;9.00;6.25;;;;;23.07;52.55;100971.19;5077737;27;45563;-57
2021/07/14 05:59:37;;;;;;;;;6.00;6.00;;;;;23.08;52.74;100980.81;5077137;27;46112;-54
2021/07/14 06:02:03;;;;;;;;;6.00;5.50;;;;;23.07;52.57;100979.09;5077336;27;45297;-58
2021/07/14 06:04:28;;;;;;;;;6.75;5.25;;;;;23.06;52.63;100974.75;5077769;27;45461;-57
2021/07/14 06:06:56;;;;;;;;;5.25;5.25;;;;;23.07;52.67;100984.38;5077768;27;45413;-58
2021/07/14 06:09:21;;;;;;;;;8.50;7.00;;;;;23.07;52.62;100984.38;5076055;27;48473;-57
2021/07/14 06:11:46;;;;;;;;;8.75;7.75;;;;;23.07;52.71;100981.75;5077246;27;45903;-58
2021/07/14 06:14:12;;;;;;;;;8.00;6.75;;;;;23.08;52.64;100987.88;5077174;28;45375;-56
2021/07/14 06:16:37;;;;;;;;;7.25;7.00;;;;;23.07;52.61;100989.69;5077286;28;45318;-55
2021/07/14 06:19:02;;;;;;;;;6.00;6.00;;;;;23.06;52.77;100990.63;5076796;28;50984;-52
2021/07/14 06:21:28;;;;;;;;;6.25;5.00;;;;;23.06;52.67;100982.69;5076040;28;45813;-59
2021/07/14 06:23:53;;;;;;;;;6.75;6.00;;;;;23.06;52.69;100981.81;5077171;27;45353;-58
2021/07/14 06:26:20;;;;;;;;;6.50;6.50;;;;;23.05;52.71;100981.00;5077171;28;45465;-59
2021/07/14 06:28:45;;;;;;;;;6.00;6.00;;;;;23.07;52.60;100989.69;5076767;27;45466;-59
2021/07/14 06:31:11;;;;;;;;;8.25;6.50;;;;;23.05;52.41;100986.28;5076564;27;45276;-57
2021/07/14 06:33:38;;;;;;;;;7.00;7.00;;;;;23.07;52.41;100989.69;5076423;27;45237;-60
2021/07/14 06:36:04;;;;;;;;;6.75;6.75;;;;;23.05;52.70;100986.28;5075886;28;45479;-54
2021/07/14 06:38:30;;;;;;;;;5.75;5.75;;;;;23.06;52.39;100993.28;5076900;27;46390;-61
2021/07/14 06:40:55;;;;;;;;;6.00;5.25;;;;;23.05;52.36;100991.56;5076764;27;45322;-58
2021/07/14 06:43:21;;;;;;;;;5.50;5.50;;;;;23.05;52.50;100996.84;5075729;28;45327;-59
2021/07/14 06:45:47;;;;;;;;;6.75;6.25;;;;;23.05;52.65;101010.06;5076866;27;45386;-57
2021/07/14 06:48:15;;;;;;;;;5.50;4.75;;;;;23.06;52.35;101008.25;5075306;28;46416;-59
2021/07/14 06:50:41;;;;;;;;;8.00;6.25;;;;;23.07;52.29;101007.31;5076643;27;45193;-58
2021/07/14 06:53:07;;;;;;;;;6.00;6.00;;;;;23.05;52.22;101001.28;5076814;27;45254;-51
2021/07/14 06:55:33;;;;;;;;;6.25;6.00;;;;;23.07;52.47;101013.47;5077236;28;45566;-52
2021/07/14 06:57:59;;;;;;;;;4.00;4.00;;;;;23.07;52.17;100999.38;5076637;27;45994;-56
2021/07/14 07:00:24;;;;;;;;;6.75;5.50;;;;;23.05;52.13;100999.50;5076467;27;45453;-52
2021/07/14 07:02:50;;;;;;;;;6.00;6.00;;;;;23.06;52.31;100998.56;5075492;28;45346;-52
2021/07/14 07:05:15;;;;;;;;;6.00;6.00;;;;;23.06;52.30;101003.84;5075565;28;45558;-57
2021/07/14 07:07:41;;;;;;;;;5.75;5.50;;;;;23.06;52.22;100995.91;5076228;27;46192;-56
2021/07/14 07:10:08;;;;;;;;;8.00;5.75;;;;;23.07;51.85;101000.25;5076335;27;45778;-51
2021/07/14 07:12:34;;;;;;;;;5.00;5.00;;;;;23.08;52.14;101001.97;5076364;28;45401;-48
2021/07/14 07:14:59;;;;;;;;;5.75;5.50;;;;;23.07;52.31;101005.53;5076574;27;45573;-48
2021/07/14 07:17:25;;;;;;;;;7.50;6.00;;;;;23.08;52.18;101007.25;5076022;28;45387;-48
2021/07/14 07:19:50;;;;;;;;;5.25;4.75;;;;;23.07;51.96;101010.84;5074834;28;45374;-51
2021/07/14 07:22:15;;;;;;;;;6.00;5.25;;;;;23.08;52.14;101011.66;5076365;27;45232;-54
2021/07/14 07:24:42;;;;;;;;;5.25;5.25;;;;;23.08;52.37;101003.72;5076439;28;45487;-49
2021/07/14 07:27:08;;;;;;;;;6.50;6.50;;;;;23.08;52.07;101001.97;5075977;27;45302;-49
2021/07/14 07:29:34;;;;;;;;;6.50;6.50;;;;;23.09;52.32;100997.50;5076431;27;45659;-50
2021/07/14 07:31:59;;;;;;;;;8.00;6.00;;;;;23.06;52.29;101009.13;5076210;27;45457;-49
2021/07/14 07:34:25;;;;;;;;;3.50;3.50;;;;;23.06;52.39;101002.97;5076400;28;45373;-55
2021/07/14 07:36:50;;;;;;;;;4.50;4.50;;;;;23.07;51.92;101005.53;5075978;27;46001;-49
2021/07/14 07:39:15;;;;;;;;;4.00;4.00;;;;;23.08;52.11;101012.53;5075880;27;45264;-53
2021/07/14 07:41:42;;;;;;;;;5.25;4.00;;;;;23.08;52.33;101017.81;5076237;27;45385;-49
2021/07/14 07:44:07;;;;;;;;;5.25;5.25;;;;;23.09;52.06;101014.22;5078535;27;45549;-57
2021/07/14 07:46:33;;;;;;;;;4.75;4.50;;;;;23.07;52.04;101005.53;5079731;27;46326;-49
2021/07/14 07:48:59;;;;;;;;;6.00;5.25;;;;;23.09;52.09;100998.38;5078191;28;45744;-50
2021/07/14 07:51:25;;;;;;;;;3.50;3.50;;;;;23.08;51.84;101003.72;5079542;28;45232;-48
2021/07/14 07:53:51;;;;;;;;;5.25;4.00;;;;;23.10;51.99;101005.31;5079604;27;45185;-49
2021/07/14 07:56:17;;;;;;;;;4.50;4.25;;;;;23.11;52.03;101011.47;5077924;28;47546;-54
2021/07/14 07:58:44;;;;;;;;;6.00;5.00;;;;;23.11;51.94;101016.75;5079412;27;45192;-50
2021/07/14 08:01:09;;;;;;;;;5.00;5.00;;;;;23.08;51.64;101017.81;5079448;28;45375;-51
2021/07/14 08:03:35;;;;;;;;;5.50;4.75;;;;;23.11;51.85;101022.88;5079866;27;45553;-54
2021/07/14 08:06:00;;;;;;;;;6.25;6.00;;;;;23.12;51.97;101027.22;5079040;27;47686;-49
2021/07/14 08:08:25;;;;;;;;;5.75;5.75;;;;;23.12;52.23;101029.88;5079340;27;45377;-51
2021/07/14 08:10:53;;;;;;;;;5.00;4.75;;;;;23.13;51.75;101026.28;5079315;27;45890;-52
2021/07/14 08:13:18;;;;;;;;;6.00;5.00;;;;;23.14;51.93;101027.16;5079472;27;45464;-48
2021/07/14 08:15:45;;;;;;;;;4.50;4.00;;;;;23.13;51.97;101025.44;5078985;28;47013;-50
2021/07/14 08:18:10;;;;;;;;;4.25;4.25;;;;;23.11;51.55;101024.69;5079082;27;45684;-53
2021/07/14 08:20:35;;;;;;;;;4.25;4.25;;;;;23.13;51.88;101034.22;5079472;28;45335;-49
2021/07/14 08:23:01;;;;;;;;;5.00;5.00;;;;;23.14;52.00;101035.09;5079342;27;45573;-52
2021/07/14 08:25:26;;;;;;;;;5.50;5.50;;;;;23.13;51.66;101042.16;5078897;28;45249;-51
2021/07/14 08:27:52;;;;;;;;;4.00;4.00;;;;;23.14;51.72;101048.31;5078934;27;45303;-53
2021/07/14 08:30:18;;;;;;;;;5.50;5.00;;;;;23.13;51.85;101039.50;5079005;27;45310;-50
2021/07/14 08:32:43;;;;;;;;;4.25;4.25;;;;;23.12;51.60;101037.81;5079267;27;45600;-52
2021/07/14 08:35:10;;;;;;;;;5.75;3.75;;;;;23.14;51.68;101051.78;5077665;28;48127;-49
2021/07/14 08:37:36;;;;;;;;;5.50;5.50;;;;;23.13;51.73;101046.59;5079046;27;45807;-54
2021/07/14 08:40:04;;;;;;;;;4.00;4.00;;;;;23.14;51.65;101049.13;5078630;27;45427;-56
2021/07/14 08:42:33;;;;;;;;;6.00;5.00;;;;;23.14;51.60;101054.44;5077544;28;45592;-52
2021/07/14 08:45:02;;;;;;;;;5.00;5.00;;;;;23.12;51.59;101048.38;5078581;27;45303;-55
2021/07/14 08:47:29;;;;;;;;;5.00;5.00;;;;;23.12;51.61;101045.75;5078382;27;46129;-58
2021/07/14 08:49:54;;;;;;;;;4.00;4.00;;;;;23.11;51.62;101049.31;5078677;27;45456;-52
2021/07/14 08:52:20;;;;;;;;;6.50;5.00;;;;;23.12;51.40;101058.97;5078746;27;45294;-55
2021/07/14 08:54:46;;;;;;;;;5.25;5.25;;;;;23.12;51.35;101051.03;5077388;28;46019;-54
2021/07/14 08:57:14;;;;;;;;;5.00;5.00;;;;;23.13;51.63;101054.53;5078396;27;45424;-55
2021/07/14 08:59:40;;;;;;;;;5.75;4.75;;;;;23.12;51.21;101055.47;5078803;27;45346;-56
2021/07/14 09:02:06;;;;;;;;;4.50;4.50;;;;;23.11;51.23;101054.63;5078902;27;45561;-52
2021/07/14 09:04:32;;;;;;;;;5.75;5.25;;;;;23.13;51.29;101059.81;5078073;27;47064;-52
2021/07/14 09:06:57;;;;;;;;;5.25;4.00;;;;;23.12;51.28;101058.97;5078137;27;45291;-53
2021/07/14 09:09:23;;;;;;;;;5.75;5.75;;;;;23.11;51.53;101059.91;5078008;28;46410;-49
2021/07/14 09:12:00;;;;;;;;;6.00;4.25;;;;;23.07;51.33;101052.25;5078424;27;45233;-52
2021/07/14 09:14:33;;;;;;;;;5.25;3.50;;;;;23.11;51.49;101057.25;5077952;27;46262;-50
2021/07/14 09:17:00;;;;;;;;;5.25;5.00;;;;;23.12;51.26;101066.88;5077960;27;45331;-54
2021/07/14 09:19:30;;;;;;;;;6.50;5.75;;;;;23.06;51.14;101055.84;5078361;27;45918;-50
2021/07/14 09:21:58;;;;;;;;;4.25;4.25;;;;;23.10;51.26;101063.50;5076949;28;45431;-48
2021/07/14 09:24:32;;;;;;;;;5.00;5.00;;;;;23.11;51.12;101065.19;5077802;27;45379;-50
2021/07/14 09:27:00;;;;;;;;;4.50;4.50;;;;;23.11;51.28;101059.06;5077926;27;45441;-56
2021/07/14 09:29:26;;;;;;;;;4.50;4.50;;;;;23.11;51.00;101059.91;5077803;27;45249;-48
2021/07/14 09:31:52;;;;;;;;;5.50;4.00;;;;;23.12;51.12;101060.75;5078321;27;45606;-54
2021/07/14 09:34:27;;;;;;;;;4.25;4.25;;;;;23.11;51.41;101067.00;5076378;28;46065;-49
2021/07/14 09:36:58;;;;;;;;;4.00;4.00;;;;;23.07;51.17;101055.78;5077749;27;45249;-51
2021/07/14 09:39:31;;;;;;;;;6.50;5.00;;;;;23.11;51.13;101057.25;5076600;28;45301;-52
2021/07/14 09:42:12;;;;;;;;;4.00;4.00;;;;;23.11;51.17;101070.47;5078003;27;45625;-55
2021/07/14 09:44:50;;;;;;;;;4.00;4.00;;;;;23.12;51.27;101066.06;5077847;27;45656;-49
2021/07/14 09:47:18;;;;;;;;;4.00;4.00;;;;;23.13;51.22;101067.75;5077542;27;46150;-52
2021/07/14 09:49:44;;;;;;;;;4.25;4.00;;;;;23.10;50.96;101066.13;5077769;27;45428;-52
2021/07/14 09:52:13;;;;;;;;;5.00;4.00;;;;;23.12;50.79;101071.34;5077996;27;45490;-50
2021/07/14 09:54:39;;;;;;;;;4.00;4.00;;;;;23.13;51.14;101088.91;5077642;27;46245;-48
2021/07/14 09:57:24;;;;;;;;;3.50;3.50;;;;;23.13;50.95;101073.03;5077277;27;45741;-49
2021/07/14 09:59:50;;;;;;;;;4.00;4.00;;;;;23.11;51.03;101067.84;5077559;27;45376;-48
2021/07/14 10:02:16;;;;;;;;;5.75;5.75;;;;;23.13;50.91;101075.69;5077736;27;45525;-49
2021/07/14 10:04:44;;;;;;;;;3.25;3.25;;;;;23.13;50.66;101081.81;5077615;28;46801;-53
2021/07/14 10:07:32;;;;;;;;;4.00;4.00;;;;;23.13;50.66;101076.53;5076543;27;45210;-52
2021/07/14 10:10:10;;;;;;;;;4.50;3.50;;;;;23.13;50.81;101088.91;5077410;27;45159;-48
2021/07/14 10:12:36;;;;;;;;;5.00;5.00;;;;;23.09;50.84;101064.47;5077312;27;45584;-48
2021/07/14 10:15:08;;;;;;;;;4.25;4.25;;;;;23.12;50.58;101084.56;5077007;27;46120;-55
2021/07/14 10:17:41;;;;;;;;;5.75;4.75;;;;;23.11;50.60;101070.47;5077118;27;45628;-53
2021/07/14 10:20:38;;;;;;;;;3.50;3.50;;;;;23.12;50.84;101087.19;5077166;27;45260;-57
2021/07/14 10:23:06;;;;;;;;;3.75;3.75;;;;;23.11;50.75;101081.06;5077297;27;45413;-49
2021/07/14 10:25:33;;;;;;;;;4.00;4.00;;;;;23.14;50.67;101091.44;5076927;27;45704;-50
2021/07/14 10:28:02;;;;;;;;;4.00;3.50;;;;;23.11;50.58;101086.34;5077182;27;45820;-48
2021/07/14 10:30:28;;;;;;;;;4.00;4.00;;;;;23.13;50.83;101087.09;5076995;27;45365;-48
2021/07/14 10:32:55;;;;;;;;;5.00;5.00;;;;;23.13;50.69;101089.75;5077301;27;45367;-51
2021/07/14 10:35:24;;;;;;;;;4.75;4.50;;;;;23.14;50.23;101082.69;5076681;28;46057;-48
2021/07/14 10:37:54;;;;;;;;;4.00;4.00;;;;;23.12;50.62;101087.19;5076851;27;45185;-50
2021/07/14 10:40:21;;;;;;;;;4.00;4.00;;;;;23.15;50.60;101097.59;5076708;27;45395;-56
2021/07/14 10:42:49;;;;;;;;;6.00;4.00;;;;;23.14;50.23;101095.91;5077027;27;45541;-56
2021/07/14 10:45:15;;;;;;;;;5.00;5.00;;;;;23.14;50.40;101096.72;5076865;27;45899;-58
2021/07/14 10:47:41;;;;;;;;;4.75;4.75;;;;;23.14;50.55;101102.03;5077190;27;45784;-57
2021/07/14 10:50:08;;;;;;;;;4.00;4.00;;;;;23.12;50.16;101095.13;5075484;27;45277;-49
2021/07/14 10:52:34;;;;;;;;;2.50;2.50;;;;;23.15;50.48;101098.44;5077051;27;45307;-49
2021/07/14 10:55:01;;;;;;;;;5.00;5.00;;;;;23.14;50.22;101103.81;5076438;28;46402;-49
2021/07/14 10:57:28;;;;;;;;;3.75;3.75;;;;;23.15;50.15;101101.06;5076435;28;45283;-49
2021/07/14 10:59:54;;;;;;;;;5.00;5.00;;;;;23.15;50.28;101103.72;5076720;27;45422;-49
2021/07/14 11:02:44;;;;;;;;;6.75;4.75;;;;;23.15;50.43;101098.44;5076746;27;45505;-49
2021/07/14 11:05:10;;;;;;;;;7.00;6.25;;;;;23.15;50.44;101103.72;5075409;28;46278;-56
2021/07/14 11:07:38;;;;;;;;;5.25;5.25;;;;;23.16;50.27;101097.50;5074803;28;45377;-55
2021/07/14 11:10:23;;;;;;;;;6.25;6.25;;;;;23.16;50.25;101105.41;5075254;28;45425;-55
2021/07/14 11:12:48;;;;;;;;;6.50;6.50;;;;;23.18;50.43;101102.66;5076599;27;45637;-58
2021/07/14 11:15:35;;;;;;;;;7.00;7.00;;;;;23.19;50.26;101103.53;5076504;27;45456;-59
2021/07/14 11:18:30;;;;;;;;;5.00;5.00;;;;;23.19;50.11;101107.06;5076993;27;45827;-58
2021/07/14 11:20:59;;;;;;;;;6.00;6.00;;;;;23.20;50.12;101105.28;5079973;27;45231;-52
2021/07/14 11:23:26;;;;;;;;;5.00;5.00;;;;;23.20;50.08;101106.09;5080115;28;45501;-52
2021/07/14 11:25:57;;;;;;;;;7.00;6.00;;;;;23.21;50.08;101114.88;5079583;27;46915;-52
2021/07/14 11:28:24;;;;;;;;;6.50;5.00;;;;;23.22;50.43;101103.34;5078491;28;45351;-51
2021/07/14 11:30:52;;;;;;;;;6.00;4.75;;;;;23.23;49.87;101100.63;5079819;27;45397;-49
2021/07/14 11:33:35;;;;;;;;;6.75;5.25;;;;;23.22;50.08;101087.50;5080021;27;45405;-50
2021/07/14 11:36:10;;;;;;;;;4.50;4.50;;;;;23.24;50.66;101089.13;5079645;27;46267;-58